Latest Coastal Weather Observations for Proserpine

IDQ60701

Issued at 8:21 am EST Saturday 29 August 2015 (issued every 10 minutes, with the page automatically refreshed every 10 minutes)

About coastal observations | Map of coastal stations | Coastal observations for QLD | Marine services | Other Formats
Station Details ID: 033247 Name: PROSERPINE AIRPORT Lat: -20.49 Lon: 148.56 Height: 19.7 m
Data from the previous 72 hours. | See also: Recent months at Proserpine
Date/Time
EST
Temp

°C
Wind Pressure Rain
since 9am
mm
Weather Cloud Vis
km
Sea
Height
m
Swell
Dir
 
Speed
knots
Gust
knots
hPa Trend Height
m
Period
s
Dir
29/08:00am 21.1 SSE 3 4 1020.4 - 0.0 - - 10 - - - -
29/07:30am 18.9 S 5 6 1020.1 - 0.0 - Partly cloudy 10 - - - -
29/07:00am 16.6 SW 3 4 1019.7 - 0.0 - - 10 - - - -
29/06:30am 14.8 CALM 0 0 1019.6 - 0.0 - Partly cloudy 10 - - - -
29/06:00am 15.8 CALM 0 0 1019.0 - 0.0 - Mostly clear 10 - - - -
29/05:30am 15.8 CALM 0 3 1018.8 - 0.0 - - 10 - - - -
29/05:00am 16.0 SW 2 3 1018.5 - 0.0 - Partly cloudy 10 - - - -
29/04:30am 16.3 SSW 4 5 1018.3 - 0.0 - Partly cloudy 10 - - - -
29/04:00am 16.2 CALM 0 0 1018.2 - 0.0 - Partly cloudy 10 - - - -
29/03:30am 16.2 SSW 3 4 1018.2 - 0.0 - - 10 - - - -
29/03:00am 16.4 SSW 5 6 1018.4 - 0.0 - - 10 - - - -
29/02:30am 16.2 SSW 4 5 1018.7 - 0.0 - - 10 - - - -
29/02:00am 16.6 SSW 3 4 1019.1 - 0.0 - - 10 - - - -
29/01:30am 16.8 SSW 5 7 1019.6 - 0.0 - - 10 - - - -
29/01:00am 17.0 SSW 5 6 1019.9 - 0.0 - - 10 - - - -
29/12:30am 17.2 SSW 4 6 1020.0 - 0.0 - - 10 - - - -
29/12:00am 17.6 CALM 0 3 1020.2 - 0.0 - - 10 - - - -
 
Date/Time
EST
Temp

°C
Wind Pressure Rain
since 9am
mm
Weather Cloud Vis
km
Sea
Height
m
Swell
Dir
 
Speed
knots
Gust
knots
hPa Trend Height
m
Period
s
Dir
28/11:30pm 17.7 CALM 0 0 1020.2 - 0.0 - Partly cloudy 10 - - - -
28/11:00pm 17.9 SW 4 5 1020.3 - 0.0 - Partly cloudy 10 - - - -
28/10:30pm 18.7 SSW 4 5 1020.3 - 0.0 - Partly cloudy 10 - - - -
28/10:25pm 18.8 SSW 5 6 1020.4 - 0.0 - Partly cloudy 10 - - - -
28/10:10pm 18.9 SSW 6 7 1020.3 - 0.0 - Partly cloudy 10 - - - -
28/10:00pm 18.8 SSW 6 7 1020.3 - 0.0 - Partly cloudy 10 - - - -
28/09:30pm 18.7 SSW 3 5 1020.2 - 0.0 - Partly cloudy 10 - - - -
28/09:00pm 19.6 SSE 4 5 1020.1 - 0.0 - Mostly clear 10 - - - -
28/08:30pm 19.7 S 4 5 1020.1 - 0.0 - - 10 - - - -
28/08:00pm 19.9 SE 5 6 1019.9 - 0.0 - - 10 - - - -
28/07:30pm 20.4 ESE 6 8 1019.4 - 0.0 - - 10 - - - -
28/07:00pm 20.7 ESE 5 7 1019.0 - 0.0 - - 10 - - - -
28/06:30pm 21.3 ESE 7 9 1018.7 - 0.0 - - 10 - - - -
28/06:00pm 22.0 ESE 10 14 1018.2 - 0.0 - Mostly clear 10 - - - -
28/05:30pm 22.8 ESE 11 16 1017.9 - 0.0 - Partly cloudy 10 - - - -
28/05:00pm 24.2 ESE 12 18 1017.5 - 0.0 - Partly cloudy 10 - - - -
28/04:30pm 24.9 ESE 11 15 1017.2 - 0.0 - Partly cloudy 10 - - - -
28/04:00pm 25.2 ESE 12 17 1016.7 - 0.0 - Partly cloudy 10 - - - -
28/03:30pm 26.9 ESE 12 16 1016.6 - 0.0 - Partly cloudy 10 - - - -
28/03:00pm 27.4 ESE 12 19 1016.5 - 0.0 - Partly cloudy 10 - - - -
28/02:30pm 27.7 E 11 15 1016.2 - 0.0 - Partly cloudy 10 - - - -
28/02:00pm 27.6 E 10 15 1017.0 - 0.0 - - 10 - - - -
28/01:30pm 27.9 E 11 16 1017.5 - 0.0 - - 10 - - - -
28/01:00pm 27.7 E 12 17 1018.1 - 0.0 - - 10 - - - -
28/12:30pm 27.3 ESE 10 16 1018.6 - 0.0 - - 10 - - - -
28/12:00pm 26.9 ESE 9 15 1019.2 - 0.0 - Mostly clear 10 - - - -
28/11:30am 26.7 E 9 13 1019.7 - 0.0 - Partly cloudy 10 - - - -
28/11:00am 25.4 ESE 8 13 1020.2 - 0.0 - Partly cloudy 10 - - - -
28/10:30am 25.5 E 6 9 1020.5 - 0.0 - Partly cloudy 10 - - - -
28/10:00am 24.0 ESE 7 10 1020.8 - 0.0 - Partly cloudy 10 - - - -
28/09:30am 23.7 SE 7 9 1020.9 - 0.0 - Partly cloudy 10 - - - -
28/09:00am 22.3 SE 6 7 1021.0 - 0.0 - Cloudy 10 - - - -
28/08:30am 21.0 SSE 4 6 1020.9 - 0.0 - Partly cloudy 10 - - - -
28/08:00am 18.7 SW 1 3 1020.8 - 0.0 - Partly cloudy 10 - - - -
28/07:30am 16.3 CALM 0 0 1020.5 - 0.0 - Partly cloudy 10 - - - -
28/07:00am 14.1 SW 1 3 1020.1 - 0.0 - - 10 - - - -
28/06:30am 13.8 CALM 0 0 1019.7 - 0.0 - - 10 - - - -
28/06:00am 14.0 CALM 0 0 1019.6 - 0.0 - Mostly clear 10 - - - -
28/05:30am 14.5 WNW 2 4 1019.4 - 0.0 - - 10 - - - -
28/05:17am 14.1 CALM 0 0 1019.2 - 0.0 - - 10 - - - -
28/05:00am 14.2 CALM 0 0 1019.1 - 0.0 - - 5 - - - -
28/04:59am 14.2 CALM 0 0 1019.1 - 0.0 - - 5 - - - -
28/04:30am 14.2 CALM 0 0 1018.8 - 0.0 - - 10 - - - -
28/04:00am 14.7 CALM 0 0 1018.7 - 0.0 - - 10 - - - -
28/03:30am 15.5 NW 2 3 1018.8 - 0.0 - - 10 - - - -
28/03:00am 15.9 SSW 5 6 1018.7 - 0.0 - - 10 - - - -
28/02:30am 16.2 SSW 5 6 1018.8 - 0.0 - - 10 - - - -
28/02:00am 16.5 SSW 4 5 1019.0 - 0.0 - - 10 - - - -
28/01:30am 16.9 SSW 6 7 1019.4 - 0.0 - - 10 - - - -
28/01:00am 17.1 SSW 5 7 1019.6 - 0.0 - Partly cloudy 10 - - - -
28/12:51am 17.5 SSW 5 6 1019.8 - 0.0 - Partly cloudy 10 - - - -
28/12:30am 17.7 SSW 4 5 1020.0 - 0.0 - Partly cloudy 10 - - - -
28/12:00am 17.6 SW 3 3 1020.2 - 0.0 - Cloudy 10 - - - -
 
Date/Time
EST
Temp

°C
Wind Pressure Rain
since 9am
mm
Weather Cloud Vis
km
Sea
Height
m
Swell
Dir
 
Speed
knots
Gust
knots
hPa Trend Height
m
Period
s
Dir
27/11:34pm 17.5 SW 2 4 1020.2 - 0.0 - Partly cloudy 10 - - - -
27/11:30pm 17.5 SW 3 4 1020.2 - 0.0 - Partly cloudy 10 - - - -
27/11:00pm 17.7 SW 2 4 1020.4 - 0.0 - Partly cloudy 10 - - - -
27/10:57pm 17.7 SW 1 4 1020.4 - 0.0 - Partly cloudy 10 - - - -
27/10:32pm 17.8 SSW 6 6 1020.5 - 0.0 - Partly cloudy 10 - - - -
27/10:30pm 17.8 SW 5 6 1020.6 - 0.0 - Partly cloudy 10 - - - -
27/10:00pm 17.5 SSW 5 5 1020.6 - 0.0 - - 10 - - - -
27/09:30pm 18.2 S 4 5 1020.7 - 0.0 - - 10 - - - -
27/09:00pm 18.0 SSW 7 8 1020.7 - 0.0 - - 10 - - - -
27/08:30pm 18.3 S 4 4 1020.5 - 0.0 - - 10 - - - -
27/08:00pm 19.1 SSE 4 5 1020.3 - 0.0 - - 10 - - - -
27/07:30pm 19.8 SE 4 4 1020.1 - 0.0 - - 10 - - - -
27/07:00pm 20.6 ESE 6 9 1019.5 - 0.0 - - 10 - - - -
27/06:30pm 20.9 ESE 6 7 1019.4 - 0.0 - - 10 - - - -
27/06:00pm 21.9 ESE 7 10 1019.0 - 0.0 - - 10 - - - -
27/05:30pm 22.9 ESE 9 11 1018.5 - 0.0 - - 10 - - - -
27/05:00pm 24.3 E 10 14 1018.3 - 0.0 - - 10 - - - -
27/04:30pm 25.2 ESE 10 16 1017.9 - 0.0 - - 10 - - - -
27/04:00pm 26.0 ESE 12 15 1017.8 - 0.0 - - 10 - - - -
27/03:30pm 26.6 E 12 16 1017.6 - 0.0 - - 10 - - - -
27/03:00pm 26.5 E 11 17 1017.8 - 0.0 - - 10 - - - -
27/02:30pm 26.8 E 10 18 1017.8 - 0.0 - Partly cloudy 10 - - - -
27/02:00pm 27.0 E 11 16 1018.1 - 0.0 - - 10 - - - -
27/01:30pm 25.7 ESE 12 17 1018.4 - 0.0 - Partly cloudy 10 - - - -
27/01:00pm 26.1 ESE 10 15 1018.8 - 0.0 - Partly cloudy 10 - - - -
27/12:30pm 25.9 SE 10 14 1019.3 - 0.0 - Partly cloudy 10 - - - -
27/12:00pm 26.8 ENE 9 16 1019.7 - 0.0 - Mostly clear 10 - - - -
27/11:30am 26.2 E 8 13 1020.0 - 0.0 - Partly cloudy 10 - - - -
27/11:00am 25.7 SE 10 17 1020.4 - 0.0 - Partly cloudy 10 - - - -
27/10:30am 25.2 ESE 8 12 1021.0 - 0.0 - Partly cloudy 10 - - - -
27/10:00am 25.1 ESE 7 10 1021.1 - 0.0 - Partly cloudy 10 - - - -
27/09:30am 23.7 SE 7 12 1021.3 - 0.0 - Partly cloudy 10 - - - -
27/09:00am 22.7 SSE 4 8 1021.3 - 0.0 - Partly cloudy 10 - - - -
27/08:30am 20.4 SSW 5 7 1021.3 - 0.0 - Partly cloudy 10 - - - -
27/08:00am 18.9 SSW 5 6 1021.0 - 0.0 - Partly cloudy 10 - - - -
27/07:30am 17.1 SSW 3 4 1020.6 - 0.0 - - 10 - - - -
27/07:00am 14.1 SW 2 4 1020.3 - 0.0 - Partly cloudy 10 - - - -
27/06:30am 12.1 SW 4 6 1020.0 - 0.0 - Partly cloudy 10 - - - -
27/06:00am 12.8 SW 4 4 1019.7 - 0.0 - - 10 - - - -
27/05:39am 12.9 SSW 2 5 1019.2 - 0.0 - - 10 - - - -
27/05:30am 12.7 SSW 4 6 1019.0 - 0.0 - - 10 - - - -
27/05:19am 12.0 CALM 0 0 1018.9 - 0.0 - - 3 - - - -
27/05:00am 11.7 CALM 0 0 1018.9 - 0.0 - - 10 - - - -
27/04:30am 13.0 CALM 0 0 1018.9 - 0.0 - - 10 - - - -
27/04:00am 15.0 S 3 4 1018.8 - 0.0 - - 10 - - - -
27/03:30am 13.5 SSW 5 5 1018.9 - 0.0 - - 10 - - - -
27/03:00am 13.0 SW 3 4 1019.0 - 0.0 - - 10 - - - -
27/02:30am 13.3 SSW 3 4 1019.1 - 0.0 - Partly cloudy 10 - - - -
27/02:00am 13.1 CALM 0 0 1019.4 - 0.0 - - 10 - - - -
27/01:30am 12.9 SSW 3 4 1019.7 - 0.0 - - 10 - - - -
27/01:00am 13.6 SSW 4 4 1020.0 - 0.0 - - 10 - - - -
27/12:30am 15.4 SSW 4 4 1020.3 - 0.0 - - 10 - - - -
27/12:00am 14.2 SW 4 4 1020.4 - 0.0 - - 10 - - - -
 
Date/Time
EST
Temp

°C
Wind Pressure Rain
since 9am
mm
Weather Cloud Vis
km
Sea
Height
m
Swell
Dir
 
Speed
knots
Gust
knots
hPa Trend Height
m
Period
s
Dir
26/11:30pm 14.9 SSW 4 5 1020.5 - 0.0 - - 10 - - - -
26/11:00pm 15.2 SSW 4 5 1020.6 - 0.0 - - 10 - - - -
26/10:30pm 14.8 SW 3 4 1020.8 - 0.0 - - 10 - - - -
26/10:00pm 15.0 WSW 3 3 1020.7 - 0.0 - - 10 - - - -
26/09:30pm 15.7 SSW 1 3 1020.7 - 0.0 - - 10 - - - -
26/09:00pm 16.9 CALM 0 0 1020.7 - 0.0 - - 10 - - - -
26/08:30pm 17.2 S 2 5 1020.9 - 0.0 - - 10 - - - -
26/08:00pm 18.0 CALM 0 0 1020.7 - 0.0 - - 10 - - - -
26/07:30pm 18.8 SE 5 6 1020.3 - 0.0 - - 10 - - - -
26/07:00pm 19.1 SE 5 6 1019.8 - 0.0 - - 10 - - - -
26/06:30pm 20.2 ESE 6 6 1019.5 - 0.0 - - 10 - - - -
26/06:00pm 21.9 E 6 9 1019.0 - 0.0 - - 10 - - - -
26/05:30pm 23.7 E 9 12 1018.6 - 0.0 - - 10 - - - -
26/05:00pm 25.1 E 10 13 1018.2 - 0.0 - - 10 - - - -
26/04:30pm 26.0 ENE 9 13 1018.1 - 0.0 - - 10 - - - -
26/04:00pm 26.4 E 11 15 1017.8 - 0.0 - - 10 - - - -
26/03:30pm 26.7 E 12 16 1017.6 - 0.0 - - 10 - - - -
26/03:00pm 27.0 E 12 18 1017.5 - 0.0 - - 10 - - - -
26/02:30pm 26.6 E 12 17 1017.6 - 0.0 - - 10 - - - -
26/02:00pm 27.8 E 9 15 1017.9 - 0.0 - - 10 - - - -
26/01:30pm 27.3 ESE 11 15 1018.4 - 0.0 - Partly cloudy 10 - - - -
26/01:00pm 27.5 SE 11 14 1018.8 - 0.0 - Partly cloudy 10 - - - -
26/12:30pm 26.9 SE 10 14 1019.4 - 0.0 - Partly cloudy 10 - - - -
26/12:00pm 26.8 E 8 12 1019.8 - 0.0 - Partly cloudy 10 - - - -
26/11:30am 26.2 E 7 11 1020.3 - 0.0 - Partly cloudy 10 - - - -
26/11:00am 27.3 SE 7 11 1020.7 - 0.0 - Partly cloudy 10 - - - -
26/10:30am 25.5 ENE 7 10 1021.0 - 0.0 - Partly cloudy 10 - - - -
26/10:00am 24.6 ENE 5 8 1021.5 - 0.0 - - 10 - - - -
26/09:30am 23.6 SSE 5 9 1021.6 - 0.0 - Partly cloudy 10 - - - -
26/09:00am 22.1 SE 5 7 1021.6 - 0.0 - Partly cloudy 10 - - - -
26/08:30am 20.6 SE 3 4 1021.4 - 0.0 - Partly cloudy 10 - - - -

Other Formats:

Comma delimited format used in spreadsheet applications
http://www.bom.gov.au/fwo/IDQ60701/IDQ60701.94365.axf

JavaScript Object Notation format (JSON) in row-major order
http://www.bom.gov.au/fwo/IDQ60701/IDQ60701.94365.json